createdAt,value
2017-09-26T00:00:44.705Z,12.4
2017-09-26T00:01:45.494Z,12.4
2017-09-26T00:02:46.218Z,12.4
2017-09-26T00:03:47.016Z,12.5
2017-09-26T00:04:47.825Z,12.5
2017-09-26T00:05:48.884Z,12.4
2017-09-26T00:06:49.623Z,12.4
2017-09-26T00:07:50.355Z,12.6
2017-09-26T00:08:51.169Z,12.5
2017-09-26T00:09:51.965Z,12.6
2017-09-26T00:10:53.135Z,12.5
2017-09-26T00:11:53.864Z,12.6
2017-09-26T00:12:54.609Z,12.5
2017-09-26T00:13:55.362Z,12.6
2017-09-26T00:14:56.096Z,12.6
2017-09-26T00:15:57.305Z,12.5
2017-09-26T00:16:58.044Z,12.5
2017-09-26T00:17:58.776Z,12.6
2017-09-26T00:18:59.516Z,12.6
2017-09-26T00:20:00.245Z,12.5
2017-09-26T00:21:01.324Z,12.6
2017-09-26T00:22:02.057Z,12.6
2017-09-26T00:23:02.835Z,12.6
2017-09-26T00:24:03.574Z,12.6
2017-09-26T00:25:04.312Z,12.6
2017-09-26T00:26:05.424Z,12.6
2017-09-26T00:27:06.165Z,12.6
2017-09-26T00:28:06.955Z,12.7
2017-09-26T00:29:07.685Z,12.6
2017-09-26T00:30:08.426Z,12.6
2017-09-26T00:31:09.528Z,12.6
2017-09-26T00:32:10.314Z,12.6
2017-09-26T00:33:11.049Z,12.6
2017-09-26T00:34:11.835Z,12.6
2017-09-26T00:35:12.658Z,12.6
2017-09-26T00:36:13.725Z,12.7
2017-09-26T00:37:14.473Z,12.8
2017-09-26T00:38:15.215Z,12.7
2017-09-26T00:39:15.950Z,12.8
2017-09-26T00:40:16.694Z,12.7
2017-09-26T00:41:17.814Z,12.7
2017-09-26T00:42:18.547Z,12.7
2017-09-26T00:43:19.345Z,12.7
2017-09-26T00:44:20.090Z,12.7
2017-09-26T00:45:20.814Z,12.7
2017-09-26T00:46:21.697Z,12.6
2017-09-26T00:47:22.426Z,12.6
2017-09-26T00:48:23.164Z,12.6
2017-09-26T00:49:23.908Z,12.6
2017-09-26T00:50:24.684Z,12.6
2017-09-26T00:51:25.620Z,12.5
2017-09-26T00:52:26.393Z,12.5
2017-09-26T00:53:27.188Z,12.5
2017-09-26T00:54:27.920Z,12.5
2017-09-26T00:55:28.725Z,12.5
2017-09-26T00:56:29.755Z,12.4
2017-09-26T00:57:30.483Z,12.5
2017-09-26T00:58:31.235Z,12.4
2017-09-26T00:59:31.971Z,12.3
2017-09-26T01:00:32.788Z,12.3
2017-09-26T01:01:33.593Z,12.2
2017-09-26T01:02:34.337Z,12.3
2017-09-26T01:03:35.103Z,12.3
2017-09-26T01:04:35.834Z,12.2
2017-09-26T01:05:36.573Z,12.2
2017-09-26T01:06:37.309Z,12.2
2017-09-26T01:07:38.034Z,12.1
2017-09-26T01:08:38.764Z,12.2
2017-09-26T01:09:39.694Z,12.1
2017-09-26T01:10:40.442Z,12.2
2017-09-26T01:11:41.207Z,12.2
2017-09-26T01:12:42.015Z,12.1
2017-09-26T01:13:42.753Z,12.1
2017-09-26T01:14:43.684Z,12.1
2017-09-26T01:15:44.426Z,12.0
2017-09-26T01:16:45.260Z,12.1
2017-09-26T01:17:45.984Z,12.1
2017-09-26T01:18:46.712Z,12.1
2017-09-26T01:19:47.904Z,12.0
2017-09-26T01:20:48.709Z,12.1
2017-09-26T01:21:49.440Z,12.1
2017-09-26T01:22:50.219Z,12.2
2017-09-26T01:23:51.014Z,12.2
2017-09-26T01:24:51.994Z,12.2
2017-09-26T01:25:52.726Z,12.2
2017-09-26T01:26:53.542Z,12.3
2017-09-26T01:27:54.286Z,12.4
2017-09-26T01:28:55.029Z,12.3
2017-09-26T01:29:56.224Z,12.4
2017-09-26T01:30:57.010Z,12.4
2017-09-26T01:31:57.744Z,12.4
2017-09-26T01:32:58.492Z,12.4
2017-09-26T01:33:59.264Z,12.4
2017-09-26T01:35:00.412Z,12.5
2017-09-26T01:36:01.148Z,12.5
2017-09-26T01:37:01.873Z,12.5
2017-09-26T01:38:02.605Z,12.5
2017-09-26T01:39:03.345Z,12.5
2017-09-26T01:40:04.368Z,12.5
2017-09-26T01:41:05.110Z,12.4
2017-09-26T01:42:05.906Z,12.4
2017-09-26T01:43:06.708Z,12.4
2017-09-26T01:44:07.484Z,12.4
2017-09-26T01:45:08.614Z,12.3
2017-09-26T01:46:09.346Z,12.4
2017-09-26T01:47:10.161Z,12.4
2017-09-26T01:48:10.877Z,12.3
2017-09-26T01:49:11.620Z,12.3
2017-09-26T01:50:12.688Z,12.3
2017-09-26T01:51:13.428Z,12.4
2017-09-26T01:52:14.165Z,12.4
2017-09-26T01:53:14.906Z,12.4
2017-09-26T01:54:15.699Z,12.3
2017-09-26T01:55:16.633Z,12.3
2017-09-26T01:56:17.383Z,12.4
2017-09-26T01:57:18.148Z,12.3
2017-09-26T01:58:18.942Z,12.3
2017-09-26T01:59:19.753Z,12.3
2017-09-26T02:00:20.860Z,12.3
2017-09-26T02:01:21.594Z,12.3
2017-09-26T02:02:22.322Z,12.3
2017-09-26T02:03:23.055Z,12.2
2017-09-26T02:04:23.800Z,12.3
2017-09-26T02:05:24.945Z,12.3
2017-09-26T02:06:25.749Z,12.3
2017-09-26T02:07:26.510Z,12.2
2017-09-26T02:08:27.288Z,12.1
2017-09-26T02:09:28.095Z,12.1
2017-09-26T02:10:29.045Z,12.1
2017-09-26T02:11:29.780Z,12.1
2017-09-26T02:12:30.516Z,12.2
2017-09-26T02:13:31.315Z,12.1
2017-09-26T02:14:32.043Z,12.1
2017-09-26T02:15:33.086Z,12.1
2017-09-26T02:16:33.889Z,12.1
2017-09-26T02:17:34.684Z,12.1
2017-09-26T02:18:35.483Z,12.2
2017-09-26T02:19:36.214Z,12.2
2017-09-26T02:20:37.363Z,12.2
2017-09-26T02:21:38.180Z,12.1
2017-09-26T02:22:38.945Z,12.1
2017-09-26T02:23:39.672Z,12.1
2017-09-26T02:24:40.430Z,12.1
2017-09-26T02:25:41.199Z,12.1
2017-09-26T02:26:41.933Z,12.1
2017-09-26T02:27:42.971Z,12.1
2017-09-26T02:28:43.722Z,12.0
2017-09-26T02:29:44.513Z,12.0
2017-09-26T02:30:45.248Z,11.8
2017-09-26T02:31:45.978Z,11.9
2017-09-26T02:32:47.011Z,11.8
2017-09-26T02:33:47.741Z,11.8
2017-09-26T02:34:48.488Z,11.8
2017-09-26T02:35:49.155Z,11.8
2017-09-26T02:36:49.887Z,11.8
2017-09-26T02:37:50.623Z,11.7
2017-09-26T02:38:51.369Z,11.7
2017-09-26T02:39:52.356Z,11.8
2017-09-26T02:40:53.091Z,11.7
2017-09-26T02:41:53.894Z,11.7
2017-09-26T02:42:54.624Z,11.7
2017-09-26T02:43:55.360Z,11.7
2017-09-26T02:44:56.414Z,11.6
2017-09-26T02:45:57.145Z,11.6
2017-09-26T02:46:57.955Z,11.6
2017-09-26T02:47:58.774Z,11.5
2017-09-26T02:48:59.518Z,11.5
2017-09-26T02:50:00.294Z,11.5
2017-09-26T02:51:01.435Z,11.4
2017-09-26T02:52:02.178Z,11.6
2017-09-26T02:53:02.924Z,11.6
2017-09-26T02:54:03.742Z,11.6
2017-09-26T02:55:04.534Z,11.5
2017-09-26T02:56:05.614Z,11.4
2017-09-26T02:57:06.344Z,11.5
2017-09-26T02:58:07.080Z,11.4
2017-09-26T02:59:07.813Z,11.5
2017-09-26T03:00:08.544Z,11.5
2017-09-26T03:01:09.283Z,11.3
2017-09-26T03:02:10.431Z,11.4
2017-09-26T03:03:11.176Z,11.3
2017-09-26T03:04:11.960Z,11.3
2017-09-26T03:05:12.691Z,11.3
2017-09-26T03:06:13.431Z,11.2
2017-09-26T03:07:14.520Z,11.2
2017-09-26T03:08:15.258Z,11.2
2017-09-26T03:09:15.988Z,11.3
2017-09-26T03:10:16.807Z,11.2
2017-09-26T03:11:17.621Z,11.2
2017-09-26T03:12:18.716Z,11.2
2017-09-26T03:13:19.524Z,11.2
2017-09-26T03:14:20.334Z,11.2
2017-09-26T03:15:21.071Z,11.3
2017-09-26T03:16:21.810Z,11.2
2017-09-26T03:17:22.552Z,11.2
2017-09-26T03:18:23.273Z,11.2
2017-09-26T03:19:24.086Z,11.2
2017-09-26T03:20:25.186Z,11.2
2017-09-26T03:21:25.931Z,11.1
2017-09-26T03:22:26.660Z,11.1
2017-09-26T03:23:27.400Z,11.1
2017-09-26T03:24:28.156Z,11.1
2017-09-26T03:25:28.892Z,11.1
2017-09-26T03:26:30.032Z,11.1
2017-09-26T03:27:30.840Z,11.1
2017-09-26T03:28:31.588Z,11.1
2017-09-26T03:29:32.349Z,11.1
2017-09-26T03:30:33.083Z,11.1
2017-09-26T03:31:34.291Z,11.2
2017-09-26T03:32:35.021Z,11.2
2017-09-26T03:33:35.751Z,11.2
2017-09-26T03:34:36.551Z,11.3
2017-09-26T03:35:37.304Z,11.2
2017-09-26T03:36:38.348Z,11.2
2017-09-26T03:37:39.154Z,11.2
2017-09-26T03:38:39.887Z,11.3
2017-09-26T03:39:40.623Z,11.3
2017-09-26T03:40:41.410Z,11.2
2017-09-26T03:41:42.547Z,11.3
2017-09-26T03:42:43.333Z,11.3
2017-09-26T03:43:44.078Z,11.3
2017-09-26T03:44:44.805Z,11.3
2017-09-26T03:45:45.543Z,11.2
2017-09-26T03:46:46.573Z,11.2
2017-09-26T03:47:47.342Z,11.3
2017-09-26T03:48:48.120Z,11.3
2017-09-26T03:49:48.855Z,11.3
2017-09-26T03:50:49.583Z,11.2
2017-09-26T03:51:50.732Z,11.4
2017-09-26T03:52:51.528Z,11.3
2017-09-26T03:53:52.303Z,11.4
2017-09-26T03:54:53.039Z,11.4
2017-09-26T03:55:53.765Z,11.3
2017-09-26T03:56:54.873Z,11.3
2017-09-26T03:57:55.620Z,11.3
2017-09-26T03:58:56.414Z,11.4
2017-09-26T03:59:57.171Z,11.3
2017-09-26T04:00:57.967Z,11.4
2017-09-26T04:01:58.982Z,11.4
2017-09-26T04:02:59.803Z,11.4
2017-09-26T04:04:00.535Z,11.4
2017-09-26T04:05:01.278Z,11.4
2017-09-26T04:06:02.086Z,11.5
2017-09-26T04:07:02.823Z,11.4
2017-09-26T04:08:03.564Z,11.5
2017-09-26T04:09:04.285Z,11.5
2017-09-26T04:10:05.013Z,11.5
2017-09-26T04:11:05.748Z,11.5
2017-09-26T04:12:06.484Z,11.6
2017-09-26T04:13:07.219Z,11.5
2017-09-26T04:14:08.310Z,11.6
2017-09-26T04:15:09.033Z,11.6
2017-09-26T04:16:09.784Z,11.6
2017-09-26T04:17:10.554Z,11.7
2017-09-26T04:18:11.289Z,11.6
2017-09-26T04:19:12.314Z,11.7
2017-09-26T04:20:13.043Z,11.6
2017-09-26T04:21:13.779Z,11.6
2017-09-26T04:22:14.584Z,11.6
2017-09-26T04:23:15.319Z,11.6
2017-09-26T04:24:16.452Z,11.6
2017-09-26T04:25:17.265Z,11.5
2017-09-26T04:26:18.030Z,11.6
2017-09-26T04:27:18.823Z,11.6
2017-09-26T04:28:19.556Z,11.6
2017-09-26T04:29:20.657Z,11.6
2017-09-26T04:30:21.426Z,11.6
2017-09-26T04:31:22.158Z,11.6
2017-09-26T04:32:22.967Z,11.6
2017-09-26T04:33:23.708Z,11.6
2017-09-26T04:34:24.833Z,11.7
2017-09-26T04:35:25.564Z,11.6
2017-09-26T04:36:26.294Z,11.6
2017-09-26T04:37:27.048Z,11.6
2017-09-26T04:38:27.822Z,11.7
2017-09-26T04:39:28.555Z,11.6
2017-09-26T04:40:29.362Z,11.7
2017-09-26T04:41:30.144Z,11.7
2017-09-26T04:42:30.870Z,11.7
2017-09-26T04:43:31.670Z,11.7
2017-09-26T04:44:32.653Z,11.7
2017-09-26T04:45:33.384Z,11.7
2017-09-26T04:46:34.114Z,11.7
2017-09-26T04:47:34.843Z,11.7
2017-09-26T04:48:35.587Z,11.8
2017-09-26T04:49:36.747Z,11.7
2017-09-26T04:50:37.570Z,11.7
2017-09-26T04:51:38.319Z,11.8
2017-09-26T04:52:39.038Z,11.8
2017-09-26T04:53:39.773Z,11.8
2017-09-26T04:54:40.852Z,11.7
2017-09-26T04:55:41.578Z,11.8
2017-09-26T04:56:42.317Z,11.8
2017-09-26T04:57:43.103Z,11.8
2017-09-26T04:58:43.879Z,11.7
2017-09-26T04:59:44.927Z,11.7
2017-09-26T05:00:45.658Z,11.7
2017-09-26T05:01:46.464Z,11.7
2017-09-26T05:02:47.201Z,11.8
2017-09-26T05:03:47.951Z,11.8
2017-09-26T05:04:48.983Z,11.7
2017-09-26T05:05:49.724Z,11.7
2017-09-26T05:06:50.514Z,11.8
2017-09-26T05:07:51.254Z,11.7
2017-09-26T05:08:51.983Z,11.8
2017-09-26T05:09:52.715Z,11.8
2017-09-26T05:10:53.519Z,11.7
2017-09-26T05:11:54.323Z,11.8
2017-09-26T05:12:55.081Z,11.8
2017-09-26T05:13:56.184Z,11.7
2017-09-26T05:14:57.001Z,11.7
2017-09-26T05:15:57.735Z,11.8
2017-09-26T05:16:58.542Z,11.7
2017-09-26T05:17:59.278Z,11.9
2017-09-26T05:19:00.214Z,11.8
2017-09-26T05:20:01.031Z,11.8
2017-09-26T05:21:01.763Z,11.7
2017-09-26T05:22:02.483Z,11.8
2017-09-26T05:23:03.226Z,11.9
2017-09-26T05:24:04.286Z,11.8
2017-09-26T05:25:05.077Z,11.8
2017-09-26T05:26:05.816Z,11.8
2017-09-26T05:27:06.618Z,11.8
2017-09-26T05:28:07.429Z,11.7
2017-09-26T05:29:08.559Z,11.8
2017-09-26T05:30:09.320Z,11.8
2017-09-26T05:31:10.142Z,11.8
2017-09-26T05:32:11.894Z,11.8
2017-09-26T05:33:12.601Z,11.8
2017-09-26T05:34:13.714Z,11.9
2017-09-26T05:35:14.448Z,11.9
2017-09-26T05:36:15.204Z,11.9
2017-09-26T05:37:16.012Z,11.9
2017-09-26T05:38:16.747Z,11.9
2017-09-26T05:39:17.945Z,11.9
2017-09-26T05:40:18.750Z,12.0
2017-09-26T05:41:19.493Z,11.9
2017-09-26T05:42:20.228Z,12.0
2017-09-26T05:43:20.964Z,11.9
2017-09-26T05:44:21.702Z,12.0
2017-09-26T05:45:22.522Z,12.0
2017-09-26T05:46:23.263Z,12.0
2017-09-26T05:47:24.080Z,12.0
2017-09-26T05:48:25.204Z,12.0
2017-09-26T05:49:25.947Z,12.0
2017-09-26T05:50:26.685Z,12.1
2017-09-26T05:51:27.432Z,12.0
2017-09-26T05:52:28.173Z,12.1
2017-09-26T05:53:29.203Z,12.1
2017-09-26T05:54:29.944Z,12.0
2017-09-26T05:55:30.703Z,12.0
2017-09-26T05:56:31.492Z,12.0
2017-09-26T05:57:32.312Z,12.0
2017-09-26T05:58:33.246Z,12.1
2017-09-26T05:59:33.987Z,12.1
2017-09-26T06:00:34.773Z,12.1
2017-09-26T06:01:35.512Z,12.1
2017-09-26T06:02:36.253Z,12.1
2017-09-26T06:03:37.292Z,12.2
2017-09-26T06:04:38.041Z,12.2
2017-09-26T06:05:38.814Z,12.1
2017-09-26T06:06:39.557Z,12.2
2017-09-26T06:07:40.363Z,12.3
2017-09-26T06:08:41.454Z,12.3
2017-09-26T06:09:42.253Z,12.3
2017-09-26T06:10:42.993Z,12.3
2017-09-26T06:11:43.740Z,12.4
2017-09-26T06:12:44.486Z,12.4
2017-09-26T06:13:45.219Z,12.4
2017-09-26T06:14:46.038Z,12.5
2017-09-26T06:15:46.823Z,12.5
2017-09-26T06:16:47.566Z,12.6
2017-09-26T06:17:48.372Z,12.6
2017-09-26T06:18:49.414Z,12.6
2017-09-26T06:19:50.145Z,12.7
2017-09-26T06:20:50.883Z,12.6
2017-09-26T06:21:51.624Z,12.6
2017-09-26T06:22:52.364Z,12.6
2017-09-26T06:23:53.560Z,12.6
2017-09-26T06:24:54.339Z,12.7
2017-09-26T06:25:55.067Z,12.7
2017-09-26T06:26:55.804Z,12.7
2017-09-26T06:27:56.544Z,12.7
2017-09-26T06:28:57.525Z,12.8
2017-09-26T06:29:58.267Z,12.7
2017-09-26T06:30:59.009Z,12.8
2017-09-26T06:32:00.403Z,12.7
2017-09-26T06:33:01.232Z,12.9
2017-09-26T06:34:02.418Z,12.8
2017-09-26T06:35:03.180Z,12.8
2017-09-26T06:36:03.942Z,12.8
2017-09-26T06:37:04.689Z,12.9
2017-09-26T06:38:05.488Z,12.9
2017-09-26T06:39:06.631Z,12.9
2017-09-26T06:40:07.369Z,12.9
2017-09-26T06:41:08.179Z,12.9
2017-09-26T06:42:08.957Z,12.9
2017-09-26T06:43:09.707Z,12.9
2017-09-26T06:44:10.880Z,13.0
2017-09-26T06:45:11.625Z,12.9
2017-09-26T06:46:12.390Z,13.0
2017-09-26T06:47:13.180Z,13.0
2017-09-26T06:48:13.909Z,13.0
2017-09-26T06:49:15.135Z,13.1
2017-09-26T06:50:15.941Z,13.1
2017-09-26T06:51:16.739Z,13.1
2017-09-26T06:52:17.527Z,13.2
2017-09-26T06:53:18.320Z,13.3
2017-09-26T06:54:19.449Z,13.2
2017-09-26T06:55:20.237Z,13.2
2017-09-26T06:56:21.024Z,13.2
2017-09-26T06:57:21.822Z,13.3
2017-09-26T06:58:22.558Z,13.4
2017-09-26T06:59:23.713Z,13.4
2017-09-26T07:00:24.444Z,13.4
2017-09-26T07:01:25.183Z,13.4
2017-09-26T07:02:25.924Z,13.4
2017-09-26T07:03:26.724Z,13.5
2017-09-26T07:04:28.524Z,13.4
2017-09-26T07:05:29.335Z,13.5
2017-09-26T07:06:30.153Z,13.6
2017-09-26T07:07:30.906Z,13.4
2017-09-26T07:08:31.707Z,13.5
2017-09-26T07:09:32.645Z,13.5
2017-09-26T07:10:33.386Z,13.6
2017-09-26T07:11:34.204Z,13.4
2017-09-26T07:12:34.945Z,13.5
2017-09-26T07:13:35.755Z,13.6
2017-09-26T07:14:36.974Z,13.5
2017-09-26T07:15:37.784Z,13.5
2017-09-26T07:16:38.527Z,13.6
2017-09-26T07:17:39.335Z,13.6
2017-09-26T07:18:40.074Z,13.6
2017-09-26T07:19:41.122Z,13.5
2017-09-26T07:20:41.906Z,13.6
2017-09-26T07:21:42.726Z,13.5
2017-09-26T07:22:43.534Z,13.5
2017-09-26T07:23:44.274Z,13.5
2017-09-26T07:24:45.020Z,13.6
2017-09-26T07:25:45.828Z,13.5
2017-09-26T07:26:46.623Z,13.6
2017-09-26T07:27:47.369Z,13.6
2017-09-26T07:28:48.143Z,13.6
2017-09-26T07:29:48.926Z,13.6
2017-09-26T07:30:49.724Z,13.5
2017-09-26T07:31:50.770Z,13.5
2017-09-26T07:32:51.523Z,13.5
2017-09-26T07:33:52.263Z,13.5
2017-09-26T07:34:53.000Z,13.6
2017-09-26T07:35:53.743Z,13.6
2017-09-26T07:36:54.677Z,13.6
2017-09-26T07:37:55.413Z,13.6
2017-09-26T07:38:56.159Z,13.5
2017-09-26T07:39:56.936Z,13.6
2017-09-26T07:40:57.744Z,13.6
2017-09-26T07:41:58.883Z,13.6
2017-09-26T07:42:59.626Z,13.6
2017-09-26T07:44:00.434Z,13.7
2017-09-26T07:45:01.184Z,13.6
2017-09-26T07:46:01.917Z,13.7
2017-09-26T07:47:02.995Z,13.8
2017-09-26T07:48:03.728Z,13.8
2017-09-26T07:49:04.476Z,13.8
2017-09-26T07:50:05.225Z,13.8
2017-09-26T07:51:06.026Z,13.8
2017-09-26T07:52:07.061Z,13.8
2017-09-26T07:53:07.788Z,13.8
2017-09-26T07:54:08.525Z,13.8
2017-09-26T07:55:09.264Z,13.9
2017-09-26T07:56:10.004Z,13.8
2017-09-26T07:57:11.105Z,13.8
2017-09-26T07:58:11.928Z,13.9
2017-09-26T07:59:12.705Z,14.0
2017-09-26T08:00:13.454Z,13.9
2017-09-26T08:01:14.194Z,13.9
2017-09-26T08:02:14.981Z,14.0
2017-09-26T08:03:15.724Z,14.0
2017-09-26T08:04:16.675Z,14.1
2017-09-26T08:05:17.413Z,14.1
2017-09-26T08:06:18.146Z,14.1
2017-09-26T08:07:18.954Z,14.3
2017-09-26T08:08:19.702Z,14.3
2017-09-26T08:09:20.634Z,14.4
2017-09-26T08:10:21.390Z,14.4
2017-09-26T08:11:22.190Z,14.4
2017-09-26T08:12:22.926Z,14.5
2017-09-26T08:13:23.754Z,14.6
2017-09-26T08:14:24.844Z,14.7
2017-09-26T08:15:25.584Z,14.5
2017-09-26T08:16:26.324Z,14.7
2017-09-26T08:17:27.125Z,14.6
2017-09-26T08:18:27.928Z,14.7
2017-09-26T08:19:29.009Z,14.7
2017-09-26T08:20:29.747Z,14.7
2017-09-26T08:21:30.493Z,14.8
2017-09-26T08:22:31.234Z,14.7
2017-09-26T08:23:31.975Z,14.8
2017-09-26T08:24:33.120Z,14.9
2017-09-26T08:25:33.933Z,15.0
2017-09-26T08:26:34.765Z,15.0
2017-09-26T08:27:35.499Z,15.0
2017-09-26T08:28:36.244Z,15.1
2017-09-26T08:29:37.389Z,15.2
2017-09-26T08:30:38.174Z,15.1
2017-09-26T08:31:38.925Z,15.3
2017-09-26T08:32:39.678Z,15.2
2017-09-26T08:33:40.444Z,15.2
2017-09-26T08:34:41.394Z,15.2
2017-09-26T08:35:42.138Z,15.3
2017-09-26T08:36:42.913Z,15.2
2017-09-26T08:37:43.655Z,15.3
2017-09-26T08:38:44.459Z,15.2
2017-09-26T08:39:45.545Z,15.1
2017-09-26T08:40:46.279Z,15.2
2017-09-26T08:41:47.080Z,15.2
2017-09-26T08:42:47.898Z,15.3
2017-09-26T08:43:48.681Z,15.3
2017-09-26T08:44:49.775Z,15.2
2017-09-26T08:45:50.581Z,15.3
2017-09-26T08:46:51.317Z,15.2
2017-09-26T08:47:52.054Z,15.3
2017-09-26T08:48:52.787Z,15.4
2017-09-26T08:49:53.957Z,15.5
2017-09-26T08:50:54.694Z,15.4
2017-09-26T08:51:55.444Z,15.3
2017-09-26T08:52:56.199Z,15.4
2017-09-26T08:53:56.975Z,15.4
2017-09-26T08:54:57.717Z,15.5
2017-09-26T08:55:58.494Z,15.5
2017-09-26T08:56:59.246Z,15.6
2017-09-26T08:58:00.065Z,15.5
2017-09-26T08:59:00.804Z,15.6
2017-09-26T09:00:01.834Z,15.6
2017-09-26T09:01:02.578Z,15.7
2017-09-26T09:02:03.355Z,15.6
2017-09-26T09:03:04.113Z,15.7
2017-09-26T09:04:04.895Z,15.6
2017-09-26T09:05:05.640Z,15.6
2017-09-26T09:06:06.764Z,15.6
2017-09-26T09:07:07.494Z,15.7
2017-09-26T09:08:08.233Z,15.7
2017-09-26T09:09:08.974Z,15.6
2017-09-26T09:10:09.734Z,15.6
2017-09-26T09:11:10.677Z,15.7
2017-09-26T09:12:11.484Z,15.8
2017-09-26T09:13:12.216Z,15.7
2017-09-26T09:14:13.032Z,15.8
2017-09-26T09:15:13.774Z,15.9
2017-09-26T09:16:14.928Z,16.1
2017-09-26T09:17:15.728Z,16.0
2017-09-26T09:18:16.525Z,16.1
2017-09-26T09:19:17.258Z,16.3
2017-09-26T09:20:17.994Z,16.3
2017-09-26T09:21:19.075Z,16.4
2017-09-26T09:22:19.953Z,16.3
2017-09-26T09:23:20.634Z,16.4
2017-09-26T09:24:21.382Z,16.5
2017-09-26T09:25:22.205Z,16.8
2017-09-26T09:26:23.376Z,17.0
2017-09-26T09:27:24.174Z,17.2
2017-09-26T09:28:24.924Z,17.4
2017-09-26T09:29:25.664Z,17.6
2017-09-26T09:30:26.440Z,17.8
2017-09-26T09:31:27.204Z,17.8
2017-09-26T09:32:27.944Z,17.8
2017-09-26T09:33:28.691Z,17.9
2017-09-26T09:34:29.375Z,17.9
2017-09-26T09:35:30.139Z,18.1
2017-09-26T09:36:31.164Z,18.1
2017-09-26T09:37:31.903Z,18.2
2017-09-26T09:38:32.654Z,18.2
2017-09-26T09:39:33.403Z,18.0
2017-09-26T09:40:34.136Z,18.0
2017-09-26T09:41:34.874Z,17.8
2017-09-26T09:42:35.942Z,17.7
2017-09-26T09:43:36.749Z,17.6
2017-09-26T09:44:37.564Z,17.5
2017-09-26T09:45:38.435Z,17.6
2017-09-26T09:46:39.243Z,17.6
2017-09-26T09:47:40.333Z,17.3
2017-09-26T09:48:41.098Z,17.6
2017-09-26T09:49:41.882Z,17.6
2017-09-26T09:50:42.614Z,17.7
2017-09-26T09:51:43.353Z,18.0
2017-09-26T09:52:44.491Z,18.1
2017-09-26T09:53:45.228Z,18.4
2017-09-26T09:54:45.965Z,18.1
2017-09-26T09:55:46.704Z,18.1
2017-09-26T09:56:47.453Z,17.8
2017-09-26T09:57:48.405Z,17.7
2017-09-26T09:58:49.134Z,17.5
2017-09-26T09:59:49.885Z,17.4
2017-09-26T10:00:50.703Z,17.4
2017-09-26T10:01:51.448Z,17.5
2017-09-26T10:02:52.596Z,17.7
2017-09-26T10:03:53.329Z,18.0
2017-09-26T10:04:54.069Z,18.2
2017-09-26T10:05:54.817Z,18.4
2017-09-26T10:06:55.573Z,18.6
2017-09-26T10:07:56.727Z,18.8
2017-09-26T10:08:57.545Z,19.0
2017-09-26T10:09:58.292Z,19.3
2017-09-26T10:10:59.054Z,19.3
2017-09-26T10:11:59.795Z,19.4
2017-09-26T10:13:00.863Z,19.1
2017-09-26T10:14:01.650Z,19.1
2017-09-26T10:15:02.446Z,19.0
2017-09-26T10:16:03.253Z,19.1
2017-09-26T10:17:04.004Z,19.2
2017-09-26T10:18:05.004Z,19.5
2017-09-26T10:19:05.798Z,19.5
2017-09-26T10:20:06.543Z,19.4
2017-09-26T10:21:07.304Z,19.2
2017-09-26T10:22:08.043Z,19.1
2017-09-26T10:23:09.137Z,19.1
2017-09-26T10:24:09.876Z,18.8
2017-09-26T10:25:10.619Z,18.4
2017-09-26T10:26:11.419Z,18.6
2017-09-26T10:27:12.205Z,18.8
2017-09-26T10:28:13.003Z,18.7
2017-09-26T10:29:13.745Z,18.6
2017-09-26T10:30:14.473Z,18.6
2017-09-26T10:31:15.216Z,18.6
2017-09-26T10:32:16.164Z,18.6
2017-09-26T10:33:16.987Z,18.7
2017-09-26T10:34:17.717Z,18.6
2017-09-26T10:35:18.468Z,18.6
2017-09-26T10:36:19.204Z,18.4
2017-09-26T10:37:20.344Z,18.5
2017-09-26T10:38:21.158Z,18.4
2017-09-26T10:39:21.986Z,18.0
2017-09-26T10:40:22.804Z,18.1
2017-09-26T10:41:23.542Z,18.0
2017-09-26T10:42:24.647Z,18.2
2017-09-26T10:43:25.383Z,18.3
2017-09-26T10:44:26.125Z,18.4
2017-09-26T10:45:26.932Z,18.4
2017-09-26T10:46:27.685Z,18.4
2017-09-26T10:47:28.885Z,18.4
2017-09-26T10:48:29.633Z,18.5
2017-09-26T10:49:30.392Z,18.5
2017-09-26T10:50:31.133Z,18.6
2017-09-26T10:51:31.886Z,18.5
2017-09-26T10:52:33.045Z,18.5
2017-09-26T10:53:33.857Z,18.6
2017-09-26T10:54:34.683Z,18.8
2017-09-26T10:55:35.426Z,19.1
2017-09-26T10:56:36.179Z,19.1
2017-09-26T10:57:37.332Z,19.4
2017-09-26T10:58:38.073Z,19.4
2017-09-26T10:59:38.824Z,19.2
2017-09-26T11:00:39.574Z,18.9
2017-09-26T11:01:40.327Z,19.0
2017-09-26T11:02:41.449Z,18.8
2017-09-26T11:03:42.286Z,18.7
2017-09-26T11:04:43.014Z,18.8
2017-09-26T11:05:43.763Z,18.7
2017-09-26T11:06:44.565Z,18.6
2017-09-26T11:07:45.793Z,18.6
2017-09-26T11:08:46.604Z,18.5
2017-09-26T11:09:47.453Z,18.3
2017-09-26T11:10:48.193Z,18.3
2017-09-26T11:11:49.289Z,18.4
2017-09-26T11:12:50.022Z,18.5
2017-09-26T11:13:50.877Z,18.7
2017-09-26T11:14:51.621Z,18.7
2017-09-26T11:15:52.363Z,18.9
2017-09-26T11:16:53.207Z,19.2
2017-09-26T11:17:53.975Z,19.6
2017-09-26T11:18:54.713Z,19.9
2017-09-26T11:19:55.466Z,20.0
2017-09-26T11:20:56.519Z,20.2
2017-09-26T11:21:57.303Z,20.3
2017-09-26T11:22:58.044Z,20.7
2017-09-26T11:23:58.853Z,21.1
2017-09-26T11:24:59.596Z,21.2
2017-09-26T11:26:00.538Z,21.2
2017-09-26T11:27:01.316Z,21.3
2017-09-26T11:28:02.054Z,21.5
2017-09-26T11:29:02.857Z,21.5
2017-09-26T11:30:03.645Z,21.7
2017-09-26T11:31:04.677Z,21.2
2017-09-26T11:32:05.492Z,21.2
2017-09-26T11:33:06.224Z,20.9
2017-09-26T11:34:07.054Z,20.9
2017-09-26T11:35:07.875Z,21.1
2017-09-26T11:36:08.927Z,21.2
2017-09-26T11:37:09.693Z,21.3
2017-09-26T11:38:10.443Z,21.2
2017-09-26T11:39:11.184Z,21.5
2017-09-26T11:40:12.027Z,21.5
2017-09-26T11:41:13.174Z,21.5
2017-09-26T11:42:13.936Z,21.3
2017-09-26T11:43:14.667Z,21.3
2017-09-26T11:44:15.460Z,21.4
2017-09-26T11:45:17.288Z,20.9
2017-09-26T11:46:18.675Z,20.8
2017-09-26T11:47:19.495Z,20.8
2017-09-26T11:48:20.325Z,21.0
2017-09-26T11:49:21.123Z,21.2
2017-09-26T11:50:21.871Z,21.3
2017-09-26T11:51:24.416Z,21.3
2017-09-26T11:52:25.507Z,21.1
2017-09-26T11:53:26.613Z,21.2
2017-09-26T11:54:28.369Z,21.4
2017-09-26T11:55:29.425Z,21.2
2017-09-26T11:56:30.496Z,21.4
2017-09-26T11:57:31.318Z,21.2
2017-09-26T11:58:32.133Z,21.1
2017-09-26T11:59:32.955Z,21.2
2017-09-26T12:00:33.697Z,21.0
2017-09-26T12:01:34.894Z,21.1
2017-09-26T12:02:35.633Z,21.2
2017-09-26T12:03:36.450Z,21.1
2017-09-26T12:04:37.258Z,21.2
2017-09-26T12:05:38.068Z,21.2
2017-09-26T12:06:39.149Z,20.9
2017-09-26T12:07:39.970Z,20.8
2017-09-26T12:08:40.716Z,20.6
2017-09-26T12:09:41.457Z,20.5
2017-09-26T12:10:42.203Z,20.8
2017-09-26T12:11:43.024Z,20.7
2017-09-26T12:12:44.751Z,20.7
2017-09-26T12:13:45.986Z,20.4
2017-09-26T12:14:46.744Z,20.3
2017-09-26T12:15:47.542Z,20.2
2017-09-26T12:16:49.074Z,20.3
2017-09-26T12:17:49.808Z,20.2
2017-09-26T12:18:50.771Z,20.2
2017-09-26T12:19:51.608Z,20.0
2017-09-26T12:20:52.436Z,19.9
2017-09-26T12:21:53.253Z,19.8
2017-09-26T12:22:54.039Z,19.8
2017-09-26T12:23:55.124Z,19.9
2017-09-26T12:24:55.876Z,20.5
2017-09-26T12:25:56.652Z,21.2
2017-09-26T12:26:57.489Z,21.2
2017-09-26T12:27:58.229Z,20.8
2017-09-26T12:28:59.364Z,20.7
2017-09-26T12:30:00.112Z,21.0
2017-09-26T12:31:00.892Z,21.1
2017-09-26T12:32:01.629Z,20.9
2017-09-26T12:33:02.413Z,20.8
2017-09-26T12:34:03.405Z,20.5
2017-09-26T12:35:04.216Z,20.3
2017-09-26T12:36:04.977Z,20.3
2017-09-26T12:37:05.724Z,20.4
2017-09-26T12:38:06.550Z,20.4
2017-09-26T12:39:07.736Z,20.6
2017-09-26T12:40:08.501Z,21.0
2017-09-26T12:41:09.244Z,21.2
2017-09-26T12:42:09.993Z,21.2
2017-09-26T12:43:10.736Z,21.2
2017-09-26T12:44:11.825Z,20.9
2017-09-26T12:45:12.598Z,20.8
2017-09-26T12:46:13.337Z,20.6
2017-09-26T12:47:14.082Z,20.4
2017-09-26T12:48:14.824Z,20.3
2017-09-26T12:49:15.634Z,20.1
2017-09-26T12:50:16.454Z,20.2
2017-09-26T12:51:17.197Z,19.7
2017-09-26T12:52:17.943Z,19.6
2017-09-26T12:53:19.041Z,19.7
2017-09-26T12:54:19.859Z,19.8
2017-09-26T12:55:20.666Z,19.8
2017-09-26T12:56:21.526Z,19.9
2017-09-26T12:57:22.262Z,19.8
2017-09-26T12:58:23.194Z,19.6
2017-09-26T12:59:23.934Z,19.7
2017-09-26T13:00:24.734Z,19.7
2017-09-26T13:01:25.533Z,19.7
2017-09-26T13:02:26.278Z,19.5
2017-09-26T13:03:27.024Z,19.7
2017-09-26T13:04:27.852Z,19.6
2017-09-26T13:05:28.947Z,19.6
2017-09-26T13:06:29.743Z,19.8
2017-09-26T13:07:30.479Z,19.6
2017-09-26T13:08:31.285Z,19.7
2017-09-26T13:09:32.046Z,19.9
2017-09-26T13:10:33.233Z,19.6
2017-09-26T13:11:33.973Z,19.7
2017-09-26T13:12:34.733Z,19.7
2017-09-26T13:13:35.488Z,19.8
2017-09-26T13:14:36.293Z,19.6
2017-09-26T13:15:37.036Z,19.7
2017-09-26T13:16:37.852Z,19.6
2017-09-26T13:17:39.085Z,19.7
2017-09-26T13:18:39.772Z,19.7
2017-09-26T13:19:40.513Z,19.7
2017-09-26T13:20:41.284Z,19.8
2017-09-26T13:21:42.034Z,19.9
2017-09-26T13:22:43.293Z,19.9
2017-09-26T13:23:44.034Z,19.7
2017-09-26T13:24:44.762Z,19.7
2017-09-26T13:25:45.515Z,19.8
2017-09-26T13:26:46.326Z,19.6
2017-09-26T13:27:47.280Z,19.6
2017-09-26T13:28:48.030Z,19.7
2017-09-26T13:29:48.853Z,19.6